Aérodrome :
LOGIN :

S'inscrire | Disclaimer

   EN    FR    IT 

 










Légende :    VFR   VFR Marginal   IFR   IFR Intensif   IFR Très Intensif
Visi : 
Plafond : 
>= 8 km
>= 3000ft
5 à 8 km
1000 à 3000 ft
1500m à 5 km
500 à 1000 ft
800 à 1500m
200 à 500 ft
< 800m
< 200 ft
Symboles :   Orages  Brouillard  Fortes neiges  Fortes précipitations  Vent > 20 kt
SIGMETs :   Divers  Orages  Givrage  Turbulence  Onde Orograph.  Cendres Volcan.







- Altitude de l'aérodrome : 699 ft
- Code IATA : PAD


EDLP - Paderborn Lippstadt

DERNIER METAR :
  • 221950Z 19004KT CAVOK 13/12 Q1022

METARs EXPIRÉS :
  • 221920Z VRB02KT CAVOK 13/12 Q1022
  • 221850Z VRB01KT 9999 SCT047 14/12 Q1022
  • 221820Z 27003KT 9999 FEW043 15/11 Q1021
  • 221750Z 28003KT 250V310 9999 FEW046 15/10 Q1021
  • 221720Z VRB02KT CAVOK 15/10 Q1021

TAF TAF EDLP
Valide du 22 à 18h jusqu'au 23 à 18h UTC


221700Z 2218/2318 32004KT 9999 FEW035
BECMG 2301/2304 4000 BR BKN007
BECMG 2304/2306 1500 BR BKN004
TEMPO 2306/2310 0500 FG OVC001
BECMG 2309/2312 8000 BKN015
Pas de NOTAMs connus pour ce terrain.



MET'MAP, la Météo Aéronautique d'un coup d'oeil ! - Copyright ORBIFLY Décembre 2007 - Disclaimer

ORBIFLY MET'MAP TEAM :

Programmation & Développement : Alexandra Zaïnal
Conception & Développement : Baudouin d'Aumeries
Co-Programmation & Développement : Marc-Olivier Méhu
Soutien technique & logistique : Manuel Goepfert

Contact : metmap@orbifly.com




SOURCES & CREDITS :

   NOAA